sensor_id;sensor_type;location;lat;lon;timestamp;pressure;altitude;pressure_sealevel;temperature;humidity
55149;BME280;49539;48.160;11.530;2022-11-23T00:00:45;94553.53;;;5.34;100.00
55149;BME280;49539;48.160;11.530;2022-11-23T00:03:14;94550.41;;;5.35;100.00
55149;BME280;49539;48.160;11.530;2022-11-23T00:05:40;94546.19;;;5.34;100.00
55149;BME280;49539;48.160;11.530;2022-11-23T00:08:05;94558.09;;;5.37;100.00
55149;BME280;49539;48.160;11.530;2022-11-23T00:10:31;94550.41;;;5.35;100.00
55149;BME280;49539;48.160;11.530;2022-11-23T00:12:56;94556.66;;;5.32;100.00
55149;BME280;49539;48.160;11.530;2022-11-23T00:15:21;94557.97;;;5.24;100.00
55149;BME280;49539;48.160;11.530;2022-11-23T00:17:46;94555.34;;;5.20;100.00
55149;BME280;49539;48.160;11.530;2022-11-23T00:20:12;94558.31;;;5.26;100.00
55149;BME280;49539;48.160;11.530;2022-11-23T00:22:37;94561.00;;;5.26;100.00
55149;BME280;49539;48.160;11.530;2022-11-23T00:25:03;94559.06;;;5.27;100.00
55149;BME280;49539;48.160;11.530;2022-11-23T00:27:28;94558.22;;;5.30;100.00
55149;BME280;49539;48.160;11.530;2022-11-23T00:29:54;94559.84;;;5.27;100.00
55149;BME280;49539;48.160;11.530;2022-11-23T00:32:19;94562.34;;;5.18;100.00
55149;BME280;49539;48.160;11.530;2022-11-23T00:34:44;94561.28;;;5.32;100.00
55149;BME280;49539;48.160;11.530;2022-11-23T00:37:10;94554.34;;;5.31;100.00
55149;BME280;49539;48.160;11.530;2022-11-23T00:39:35;94555.53;;;5.30;100.00
55149;BME280;49539;48.160;11.530;2022-11-23T00:42:00;94555.22;;;5.28;100.00
55149;BME280;49539;48.160;11.530;2022-11-23T00:44:25;94550.63;;;5.25;100.00
55149;BME280;49539;48.160;11.530;2022-11-23T00:46:51;94555.59;;;5.26;100.00
55149;BME280;49539;48.160;11.530;2022-11-23T00:49:16;94553.84;;;5.19;100.00
55149;BME280;49539;48.160;11.530;2022-11-23T00:51:42;94553.34;;;5.25;100.00
55149;BME280;49539;48.160;11.530;2022-11-23T00:54:07;94554.16;;;5.21;100.00
55149;BME280;49539;48.160;11.530;2022-11-23T00:56:33;94551.81;;;5.23;100.00
55149;BME280;49539;48.160;11.530;2022-11-23T00:58:59;94554.53;;;5.23;100.00
55149;BME280;49539;48.160;11.530;2022-11-23T01:01:29;94541.44;;;5.22;100.00
55149;BME280;49539;48.160;11.530;2022-11-23T01:03:58;94543.03;;;5.19;100.00
55149;BME280;49539;48.160;11.530;2022-11-23T01:06:25;94549.25;;;5.16;100.00
55149;BME280;49539;48.160;11.530;2022-11-23T01:08:55;94551.53;;;5.18;100.00
55149;BME280;49539;48.160;11.530;2022-11-23T01:11:22;94558.88;;;5.17;100.00
55149;BME280;49539;48.160;11.530;2022-11-23T01:13:48;94552.31;;;5.18;100.00
55149;BME280;49539;48.160;11.530;2022-11-23T01:16:14;94556.25;;;5.14;100.00
55149;BME280;49539;48.160;11.530;2022-11-23T01:18:40;94549.63;;;5.18;100.00
55149;BME280;49539;48.160;11.530;2022-11-23T01:21:05;94564.09;;;5.08;100.00
55149;BME280;49539;48.160;11.530;2022-11-23T01:23:31;94563.41;;;5.04;100.00
55149;BME280;49539;48.160;11.530;2022-11-23T01:25:56;94560.97;;;5.10;100.00
55149;BME280;49539;48.160;11.530;2022-11-23T01:28:21;94567.53;;;5.09;100.00
55149;BME280;49539;48.160;11.530;2022-11-23T01:30:47;94567.16;;;5.10;100.00
55149;BME280;49539;48.160;11.530;2022-11-23T01:33:12;94569.47;;;5.08;100.00
55149;BME280;49539;48.160;11.530;2022-11-23T01:35:37;94569.91;;;5.07;100.00
55149;BME280;49539;48.160;11.530;2022-11-23T01:38:03;94570.94;;;5.13;100.00
55149;BME280;49539;48.160;11.530;2022-11-23T01:40:28;94565.28;;;5.07;100.00
55149;BME280;49539;48.160;11.530;2022-11-23T01:42:55;94573.75;;;5.06;100.00
55149;BME280;49539;48.160;11.530;2022-11-23T01:45:31;94572.63;;;5.07;100.00
55149;BME280;49539;48.160;11.530;2022-11-23T01:47:57;94570.38;;;5.02;100.00
55149;BME280;49539;48.160;11.530;2022-11-23T01:50:23;94570.75;;;5.04;100.00
55149;BME280;49539;48.160;11.530;2022-11-23T01:52:48;94581.28;;;4.98;100.00
55149;BME280;49539;48.160;11.530;2022-11-23T01:55:14;94579.72;;;4.97;100.00
55149;BME280;49539;48.160;11.530;2022-11-23T01:57:39;94585.88;;;4.97;100.00
55149;BME280;49539;48.160;11.530;2022-11-23T02:00:07;94584.84;;;4.91;100.00
55149;BME280;49539;48.160;11.530;2022-11-23T02:02:32;94593.38;;;4.90;100.00
55149;BME280;49539;48.160;11.530;2022-11-23T02:04:59;94584.22;;;4.84;100.00
55149;BME280;49539;48.160;11.530;2022-11-23T02:07:25;94583.91;;;4.82;100.00
55149;BME280;49539;48.160;11.530;2022-11-23T02:09:52;94590.88;;;4.79;100.00
55149;BME280;49539;48.160;11.530;2022-11-23T02:12:17;94593.22;;;4.77;100.00
55149;BME280;49539;48.160;11.530;2022-11-23T02:14:43;94590.44;;;4.81;100.00
55149;BME280;49539;48.160;11.530;2022-11-23T02:17:08;94591.06;;;4.88;100.00
55149;BME280;49539;48.160;11.530;2022-11-23T02:21:59;94582.97;;;4.88;100.00
55149;BME280;49539;48.160;11.530;2022-11-23T02:24:32;94578.34;;;4.89;100.00
55149;BME280;49539;48.160;11.530;2022-11-23T02:26:59;94578.41;;;4.85;100.00
55149;BME280;49539;48.160;11.530;2022-11-23T02:29:26;94579.66;;;4.81;100.00
55149;BME280;49539;48.160;11.530;2022-11-23T02:31:53;94574.69;;;4.79;100.00
55149;BME280;49539;48.160;11.530;2022-11-23T02:34:18;94582.16;;;4.71;100.00
55149;BME280;49539;48.160;11.530;2022-11-23T02:36:45;94583.03;;;4.65;100.00
55149;BME280;49539;48.160;11.530;2022-11-23T02:39:21;94583.59;;;4.56;100.00
55149;BME280;49539;48.160;11.530;2022-11-23T02:41:48;94582.44;;;4.57;100.00
55149;BME280;49539;48.160;11.530;2022-11-23T02:44:19;94586.28;;;4.56;100.00
55149;BME280;49539;48.160;11.530;2022-11-23T02:46:47;94581.22;;;4.38;100.00
55149;BME280;49539;48.160;11.530;2022-11-23T02:49:12;94580.47;;;4.38;100.00
55149;BME280;49539;48.160;11.530;2022-11-23T02:51:37;94582.03;;;4.35;100.00
55149;BME280;49539;48.160;11.530;2022-11-23T02:54:03;94580.56;;;4.31;100.00
55149;BME280;49539;48.160;11.530;2022-11-23T02:56:28;94579.22;;;4.19;100.00
55149;BME280;49539;48.160;11.530;2022-11-23T02:58:53;94585.47;;;4.16;100.00
55149;BME280;49539;48.160;11.530;2022-11-23T03:01:18;94583.22;;;4.11;100.00
55149;BME280;49539;48.160;11.530;2022-11-23T03:03:44;94580.66;;;4.04;100.00
55149;BME280;49539;48.160;11.530;2022-11-23T03:06:09;94584.56;;;3.99;100.00
55149;BME280;49539;48.160;11.530;2022-11-23T03:08:34;94596.16;;;3.96;100.00
55149;BME280;49539;48.160;11.530;2022-11-23T03:11:00;94590.47;;;3.90;100.00
55149;BME280;49539;48.160;11.530;2022-11-23T03:13:26;94596.38;;;3.82;100.00
55149;BME280;49539;48.160;11.530;2022-11-23T03:15:53;94594.81;;;3.84;100.00
55149;BME280;49539;48.160;11.530;2022-11-23T03:18:19;94598.78;;;3.76;100.00
55149;BME280;49539;48.160;11.530;2022-11-23T03:20:45;94598.81;;;3.72;100.00
55149;BME280;49539;48.160;11.530;2022-11-23T03:23:10;94603.09;;;3.70;100.00
55149;BME280;49539;48.160;11.530;2022-11-23T03:25:35;94597.31;;;3.71;100.00
55149;BME280;49539;48.160;11.530;2022-11-23T03:28:01;94601.56;;;3.69;100.00
55149;BME280;49539;48.160;11.530;2022-11-23T03:30:26;94598.91;;;3.65;100.00
55149;BME280;49539;48.160;11.530;2022-11-23T03:32:51;94607.31;;;3.71;100.00
55149;BME280;49539;48.160;11.530;2022-11-23T03:35:16;94592.38;;;3.66;100.00
55149;BME280;49539;48.160;11.530;2022-11-23T03:37:42;94596.69;;;3.60;100.00
55149;BME280;49539;48.160;11.530;2022-11-23T03:40:07;94596.66;;;3.64;100.00
55149;BME280;49539;48.160;11.530;2022-11-23T03:42:33;94599.03;;;3.58;100.00
55149;BME280;49539;48.160;11.530;2022-11-23T03:44:58;94594.81;;;3.57;100.00
55149;BME280;49539;48.160;11.530;2022-11-23T03:47:23;94591.44;;;3.49;100.00
55149;BME280;49539;48.160;11.530;2022-11-23T03:49:48;94586.53;;;3.44;100.00
55149;BME280;49539;48.160;11.530;2022-11-23T03:52:14;94593.09;;;3.43;100.00
55149;BME280;49539;48.160;11.530;2022-11-23T03:54:39;94587.44;;;3.34;100.00
55149;BME280;49539;48.160;11.530;2022-11-23T03:57:05;94585.09;;;3.36;100.00
55149;BME280;49539;48.160;11.530;2022-11-23T03:59:30;94593.22;;;3.33;100.00
55149;BME280;49539;48.160;11.530;2022-11-23T04:01:55;94589.44;;;3.30;100.00
55149;BME280;49539;48.160;11.530;2022-11-23T04:04:20;94584.50;;;3.25;100.00
55149;BME280;49539;48.160;11.530;2022-11-23T04:06:46;94585.25;;;3.26;100.00
55149;BME280;49539;48.160;11.530;2022-11-23T04:09:11;94585.97;;;3.30;100.00
55149;BME280;49539;48.160;11.530;2022-11-23T04:11:37;94581.03;;;3.24;100.00
55149;BME280;49539;48.160;11.530;2022-11-23T04:14:02;94589.88;;;3.25;100.00
55149;BME280;49539;48.160;11.530;2022-11-23T04:16:28;94584.09;;;3.27;100.00
55149;BME280;49539;48.160;11.530;2022-11-23T04:18:53;94583.78;;;3.21;100.00
55149;BME280;49539;48.160;11.530;2022-11-23T04:21:18;94583.78;;;3.21;100.00
55149;BME280;49539;48.160;11.530;2022-11-23T04:23:43;94578.78;;;3.19;100.00
55149;BME280;49539;48.160;11.530;2022-11-23T04:26:09;94588.06;;;3.15;100.00
55149;BME280;49539;48.160;11.530;2022-11-23T04:28:34;94585.75;;;3.17;100.00
55149;BME280;49539;48.160;11.530;2022-11-23T04:30:59;94579.22;;;3.18;100.00
55149;BME280;49539;48.160;11.530;2022-11-23T04:33:24;94581.09;;;3.21;100.00
55149;BME280;49539;48.160;11.530;2022-11-23T04:35:50;94578.88;;;3.12;100.00
55149;BME280;49539;48.160;11.530;2022-11-23T04:38:15;94587.66;;;3.16;100.00
55149;BME280;49539;48.160;11.530;2022-11-23T04:40:41;94586.19;;;3.12;100.00
55149;BME280;49539;48.160;11.530;2022-11-23T04:43:06;94587.75;;;3.13;100.00
55149;BME280;49539;48.160;11.530;2022-11-23T04:45:36;94581.97;;;3.11;100.00
55149;BME280;49539;48.160;11.530;2022-11-23T04:48:01;94586.53;;;3.17;100.00
55149;BME280;49539;48.160;11.530;2022-11-23T04:50:27;94579.13;;;3.25;100.00
55149;BME280;49539;48.160;11.530;2022-11-23T04:52:52;94575.72;;;3.21;100.00
55149;BME280;49539;48.160;11.530;2022-11-23T04:55:17;94579.41;;;3.31;100.00
55149;BME280;49539;48.160;11.530;2022-11-23T04:57:42;94572.81;;;3.35;100.00
55149;BME280;49539;48.160;11.530;2022-11-23T05:00:08;94578.63;;;3.34;100.00
55149;BME280;49539;48.160;11.530;2022-11-23T05:02:33;94569.72;;;3.37;100.00
55149;BME280;49539;48.160;11.530;2022-11-23T05:04:59;94572.25;;;3.47;100.00
55149;BME280;49539;48.160;11.530;2022-11-23T05:07:24;94574.16;;;3.51;100.00
55149;BME280;49539;48.160;11.530;2022-11-23T05:09:49;94564.47;;;3.53;100.00
55149;BME280;49539;48.160;11.530;2022-11-23T05:12:14;94560.94;;;3.60;100.00
55149;BME280;49539;48.160;11.530;2022-11-23T05:14:40;94568.25;;;3.59;100.00
55149;BME280;49539;48.160;11.530;2022-11-23T05:17:07;94566.28;;;3.63;100.00
55149;BME280;49539;48.160;11.530;2022-11-23T05:19:32;94566.88;;;3.75;100.00
55149;BME280;49539;48.160;11.530;2022-11-23T05:21:57;94570.31;;;3.75;100.00
55149;BME280;49539;48.160;11.530;2022-11-23T05:24:22;94566.78;;;3.78;100.00
55149;BME280;49539;48.160;11.530;2022-11-23T05:26:48;94566.78;;;3.78;100.00
55149;BME280;49539;48.160;11.530;2022-11-23T05:29:13;94560.13;;;3.86;100.00
55149;BME280;49539;48.160;11.530;2022-11-23T05:31:38;94564.38;;;3.87;100.00
55149;BME280;49539;48.160;11.530;2022-11-23T05:34:04;94558.56;;;3.89;100.00
55149;BME280;49539;48.160;11.530;2022-11-23T05:36:29;94558.56;;;3.89;100.00
55149;BME280;49539;48.160;11.530;2022-11-23T05:38:54;94556.22;;;3.91;100.00
55149;BME280;49539;48.160;11.530;2022-11-23T05:41:20;94559.25;;;3.93;100.00
55149;BME280;49539;48.160;11.530;2022-11-23T05:43:45;94559.31;;;3.89;100.00
55149;BME280;49539;48.160;11.530;2022-11-23T05:46:11;94561.00;;;4.03;100.00
55149;BME280;49539;48.160;11.530;2022-11-23T05:48:36;94557.56;;;4.03;100.00
55149;BME280;49539;48.160;11.530;2022-11-23T05:51:02;94558.03;;;3.97;100.00
55149;BME280;49539;48.160;11.530;2022-11-23T05:53:27;94559.09;;;4.04;100.00
55149;BME280;49539;48.160;11.530;2022-11-23T05:55:52;94557.44;;;4.10;100.00
55149;BME280;49539;48.160;11.530;2022-11-23T05:58:18;94567.09;;;4.07;100.00
55149;BME280;49539;48.160;11.530;2022-11-23T06:00:43;94558.97;;;4.11;100.00
55149;BME280;49539;48.160;11.530;2022-11-23T06:03:08;94555.94;;;4.09;100.00
55149;BME280;49539;48.160;11.530;2022-11-23T06:05:34;94550.41;;;4.16;100.00
55149;BME280;49539;48.160;11.530;2022-11-23T06:07:59;94553.81;;;4.20;100.00
55149;BME280;49539;48.160;11.530;2022-11-23T06:10:24;94559.25;;;4.16;100.00
55149;BME280;49539;48.160;11.530;2022-11-23T06:12:50;94560.41;;;4.15;100.00
55149;BME280;49539;48.160;11.530;2022-11-23T06:15:17;94549.63;;;4.15;100.00
55149;BME280;49539;48.160;11.530;2022-11-23T06:17:42;94552.97;;;4.23;100.00
55149;BME280;49539;48.160;11.530;2022-11-23T06:20:08;94553.13;;;4.16;100.00
55149;BME280;49539;48.160;11.530;2022-11-23T06:22:33;94553.13;;;4.16;100.00
55149;BME280;49539;48.160;11.530;2022-11-23T06:24:58;94556.25;;;4.11;100.00
55149;BME280;49539;48.160;11.530;2022-11-23T06:27:24;94556.56;;;4.16;100.00
55149;BME280;49539;48.160;11.530;2022-11-23T06:29:49;94558.84;;;4.18;100.00
55149;BME280;49539;48.160;11.530;2022-11-23T06:32:14;94558.84;;;4.18;100.00
55149;BME280;49539;48.160;11.530;2022-11-23T06:34:39;94559.06;;;4.27;100.00
55149;BME280;49539;48.160;11.530;2022-11-23T06:37:05;94562.19;;;4.26;100.00
55149;BME280;49539;48.160;11.530;2022-11-23T06:39:30;94557.91;;;4.28;100.00
55149;BME280;49539;48.160;11.530;2022-11-23T06:41:55;94571.31;;;4.32;100.00
55149;BME280;49539;48.160;11.530;2022-11-23T06:44:21;94573.94;;;4.35;100.00
55149;BME280;49539;48.160;11.530;2022-11-23T06:46:46;94571.06;;;4.46;100.00
55149;BME280;49539;48.160;11.530;2022-11-23T06:49:14;94567.94;;;4.47;100.00
55149;BME280;49539;48.160;11.530;2022-11-23T06:51:41;94569.75;;;4.54;100.00
55149;BME280;49539;48.160;11.530;2022-11-23T06:54:07;94570.41;;;4.62;100.00
55149;BME280;49539;48.160;11.530;2022-11-23T06:56:32;94571.50;;;4.64;100.00
55149;BME280;49539;48.160;11.530;2022-11-23T06:58:58;94574.13;;;4.68;100.00
55149;BME280;49539;48.160;11.530;2022-11-23T07:01:23;94573.31;;;4.71;100.00
55149;BME280;49539;48.160;11.530;2022-11-23T07:03:48;94577.44;;;4.76;100.00
55149;BME280;49539;48.160;11.530;2022-11-23T07:06:13;94577.38;;;4.79;100.00
55149;BME280;49539;48.160;11.530;2022-11-23T07:08:39;94580.91;;;4.76;100.00
55149;BME280;49539;48.160;11.530;2022-11-23T07:11:08;94583.22;;;4.78;100.00
55149;BME280;49539;48.160;11.530;2022-11-23T07:13:33;94587.69;;;4.84;100.00
55149;BME280;49539;48.160;11.530;2022-11-23T07:15:59;94581.09;;;4.85;100.00
55149;BME280;49539;48.160;11.530;2022-11-23T07:18:24;94588.44;;;4.85;100.00
55149;BME280;49539;48.160;11.530;2022-11-23T07:20:50;94601.81;;;4.92;100.00
55149;BME280;49539;48.160;11.530;2022-11-23T07:23:15;94589.06;;;4.92;100.00
55149;BME280;49539;48.160;11.530;2022-11-23T07:25:40;94587.88;;;4.93;100.00
55149;BME280;49539;48.160;11.530;2022-11-23T07:28:06;94593.66;;;4.95;100.00
55149;BME280;49539;48.160;11.530;2022-11-23T07:30:32;94600.44;;;5.04;100.00
55149;BME280;49539;48.160;11.530;2022-11-23T07:33:01;94602.94;;;5.14;100.00
55149;BME280;49539;48.160;11.530;2022-11-23T07:35:27;94605.41;;;5.05;100.00
55149;BME280;49539;48.160;11.530;2022-11-23T07:37:52;94611.78;;;5.15;100.00
55149;BME280;49539;48.160;11.530;2022-11-23T07:40:18;94608.66;;;5.16;100.00
55149;BME280;49539;48.160;11.530;2022-11-23T07:42:43;94612.66;;;5.28;100.00
55149;BME280;49539;48.160;11.530;2022-11-23T07:45:09;94609.13;;;5.31;100.00
55149;BME280;49539;48.160;11.530;2022-11-23T07:47:34;94606.06;;;5.29;100.00
55149;BME280;49539;48.160;11.530;2022-11-23T07:50:00;94613.03;;;5.46;100.00
55149;BME280;49539;48.160;11.530;2022-11-23T07:52:25;94620.75;;;5.48;100.00
55149;BME280;49539;48.160;11.530;2022-11-23T07:54:50;94621.34;;;5.56;100.00
55149;BME280;49539;48.160;11.530;2022-11-23T07:57:15;94616.81;;;5.69;100.00
55149;BME280;49539;48.160;11.530;2022-11-23T07:59:41;94614.03;;;5.72;100.00
55149;BME280;49539;48.160;11.530;2022-11-23T08:02:09;94614.38;;;5.75;100.00
55149;BME280;49539;48.160;11.530;2022-11-23T08:04:34;94616.78;;;5.89;100.00
55149;BME280;49539;48.160;11.530;2022-11-23T08:07:00;94620.19;;;5.93;100.00
55149;BME280;49539;48.160;11.530;2022-11-23T08:09:26;94612.44;;;5.91;100.00
55149;BME280;49539;48.160;11.530;2022-11-23T08:11:51;94616.22;;;5.97;100.00
55149;BME280;49539;48.160;11.530;2022-11-23T08:14:17;94613.09;;;5.79;100.00
55149;BME280;49539;48.160;11.530;2022-11-23T08:16:42;94616.56;;;5.80;100.00
55149;BME280;49539;48.160;11.530;2022-11-23T08:19:07;94615.59;;;5.90;100.00
55149;BME280;49539;48.160;11.530;2022-11-23T08:21:33;94619.00;;;5.94;100.00
55149;BME280;49539;48.160;11.530;2022-11-23T08:23:58;94616.34;;;5.90;100.00
55149;BME280;49539;48.160;11.530;2022-11-23T08:26:23;94621.69;;;5.94;100.00
55149;BME280;49539;48.160;11.530;2022-11-23T08:28:48;94629.44;;;5.92;100.00
55149;BME280;49539;48.160;11.530;2022-11-23T08:31:14;94624.72;;;5.96;100.00
55149;BME280;49539;48.160;11.530;2022-11-23T08:33:39;94616.03;;;6.05;100.00
55149;BME280;49539;48.160;11.530;2022-11-23T08:36:06;94609.69;;;6.11;100.00
55149;BME280;49539;48.160;11.530;2022-11-23T08:38:32;94610.81;;;6.14;100.00
55149;BME280;49539;48.160;11.530;2022-11-23T08:41:00;94613.84;;;6.16;100.00
55149;BME280;49539;48.160;11.530;2022-11-23T08:43:26;94619.84;;;6.24;100.00
55149;BME280;49539;48.160;11.530;2022-11-23T08:45:58;94617.88;;;6.40;100.00
55149;BME280;49539;48.160;11.530;2022-11-23T08:48:25;94613.50;;;6.30;100.00
55149;BME280;49539;48.160;11.530;2022-11-23T08:50:51;94610.13;;;6.26;100.00
55149;BME280;49539;48.160;11.530;2022-11-23T08:53:17;94612.91;;;6.39;100.00
55149;BME280;49539;48.160;11.530;2022-11-23T08:55:42;94610.97;;;6.39;100.00
55149;BME280;49539;48.160;11.530;2022-11-23T08:58:07;94620.41;;;6.47;100.00
55149;BME280;49539;48.160;11.530;2022-11-23T09:00:33;94613.91;;;6.45;100.00
55149;BME280;49539;48.160;11.530;2022-11-23T09:02:58;94608.47;;;6.61;100.00
55149;BME280;49539;48.160;11.530;2022-11-23T09:05:24;94607.38;;;6.59;100.00
55149;BME280;49539;48.160;11.530;2022-11-23T09:07:50;94609.22;;;6.62;100.00
55149;BME280;49539;48.160;11.530;2022-11-23T09:10:15;94609.03;;;6.69;100.00
55149;BME280;49539;48.160;11.530;2022-11-23T09:12:40;94606.88;;;6.64;100.00
55149;BME280;49539;48.160;11.530;2022-11-23T09:15:06;94605.75;;;6.61;100.00
55149;BME280;49539;48.160;11.530;2022-11-23T09:17:31;94601.94;;;6.75;100.00
55149;BME280;49539;48.160;11.530;2022-11-23T09:19:57;94609.72;;;6.73;100.00
55149;BME280;49539;48.160;11.530;2022-11-23T09:22:22;94607.00;;;6.73;100.00
55149;BME280;49539;48.160;11.530;2022-11-23T09:24:47;94602.34;;;6.74;100.00
55149;BME280;49539;48.160;11.530;2022-11-23T09:27:13;94601.69;;;6.69;100.00
55149;BME280;49539;48.160;11.530;2022-11-23T09:29:38;94594.59;;;6.76;100.00
55149;BME280;49539;48.160;11.530;2022-11-23T09:32:03;94597.31;;;6.59;100.00
55149;BME280;49539;48.160;11.530;2022-11-23T09:34:29;94600.97;;;6.53;100.00
55149;BME280;49539;48.160;11.530;2022-11-23T09:36:55;94600.72;;;6.47;100.00
55149;BME280;49539;48.160;11.530;2022-11-23T09:39:20;94594.50;;;6.34;100.00
55149;BME280;49539;48.160;11.530;2022-11-23T09:47:04;94597.56;;;6.65;100.00
55149;BME280;49539;48.160;11.530;2022-11-23T09:49:32;94591.78;;;6.79;100.00
55149;BME280;49539;48.160;11.530;2022-11-23T09:52:06;94588.97;;;6.83;100.00
55149;BME280;49539;48.160;11.530;2022-11-23T09:54:35;94585.50;;;6.82;100.00
55149;BME280;49539;48.160;11.530;2022-11-23T09:57:01;94591.72;;;6.95;100.00
55149;BME280;49539;48.160;11.530;2022-11-23T09:59:33;94588.88;;;6.86;100.00
55149;BME280;49539;48.160;11.530;2022-11-23T10:02:00;94584.72;;;7.11;100.00
55149;BME280;49539;48.160;11.530;2022-11-23T10:04:25;94573.88;;;7.11;100.00
55149;BME280;49539;48.160;11.530;2022-11-23T10:06:56;94578.84;;;7.00;100.00
55149;BME280;49539;48.160;11.530;2022-11-23T10:09:41;94578.34;;;7.17;100.00
55149;BME280;49539;48.160;11.530;2022-11-23T10:19:59;94573.50;;;7.25;100.00
55149;BME280;49539;48.160;11.530;2022-11-23T10:22:34;94570.06;;;7.37;100.00
55149;BME280;49539;48.160;11.530;2022-11-23T10:25:12;94554.47;;;7.67;100.00
55149;BME280;49539;48.160;11.530;2022-11-23T10:27:39;94549.13;;;7.76;100.00
55149;BME280;49539;48.160;11.530;2022-11-23T10:30:10;94559.22;;;7.76;100.00
55149;BME280;49539;48.160;11.530;2022-11-23T10:32:43;94555.53;;;7.69;100.00
55149;BME280;49539;48.160;11.530;2022-11-23T10:35:28;94556.06;;;7.90;100.00
55149;BME280;49539;48.160;11.530;2022-11-23T10:38:11;94535.38;;;7.83;100.00
55149;BME280;49539;48.160;11.530;2022-11-23T10:40:37;94534.47;;;7.99;100.00
55149;BME280;49539;48.160;11.530;2022-11-23T10:43:09;94526.75;;;7.97;100.00
55149;BME280;49539;48.160;11.530;2022-11-23T10:45:36;94528.66;;;8.23;100.00
55149;BME280;49539;48.160;11.530;2022-11-23T10:48:01;94535.72;;;8.20;100.00
55149;BME280;49539;48.160;11.530;2022-11-23T10:50:31;94536.00;;;8.35;100.00
55149;BME280;49539;48.160;11.530;2022-11-23T10:55:52;94531.66;;;8.50;100.00
55149;BME280;49539;48.160;11.530;2022-11-23T10:58:25;94535.38;;;8.43;100.00
55149;BME280;49539;48.160;11.530;2022-11-23T11:00:58;94531.56;;;8.41;100.00
55149;BME280;49539;48.160;11.530;2022-11-23T11:03:23;94534.31;;;8.63;100.00
55149;BME280;49539;48.160;11.530;2022-11-23T11:05:49;94525.63;;;8.90;100.00
55149;BME280;49539;48.160;11.530;2022-11-23T11:08:18;94536.84;;;8.57;100.00
55149;BME280;49539;48.160;11.530;2022-11-23T11:10:45;94527.06;;;9.04;100.00
55149;BME280;49539;48.160;11.530;2022-11-23T11:13:27;94520.28;;;9.30;100.00
55149;BME280;49539;48.160;11.530;2022-11-23T11:16:01;94513.94;;;9.74;100.00
55149;BME280;49539;48.160;11.530;2022-11-23T11:18:27;94529.38;;;9.77;100.00
55149;BME280;49539;48.160;11.530;2022-11-23T11:20:57;94520.25;;;10.20;100.00
55149;BME280;49539;48.160;11.530;2022-11-23T11:23:23;94525.66;;;9.92;100.00
55149;BME280;49539;48.160;11.530;2022-11-23T11:25:50;94523.44;;;9.60;100.00
55149;BME280;49539;48.160;11.530;2022-11-23T11:28:28;94522.94;;;9.92;100.00
55149;BME280;49539;48.160;11.530;2022-11-23T11:33:45;94516.22;;;10.43;100.00
55149;BME280;49539;48.160;11.530;2022-11-23T11:36:14;94512.41;;;10.22;100.00
55149;BME280;49539;48.160;11.530;2022-11-23T11:38:41;94510.41;;;10.04;100.00
55149;BME280;49539;48.160;11.530;2022-11-23T11:41:09;94505.78;;;9.64;100.00
55149;BME280;49539;48.160;11.530;2022-11-23T11:43:37;94503.59;;;9.50;100.00
55149;BME280;49539;48.160;11.530;2022-11-23T11:46:09;94499.56;;;9.64;100.00
55149;BME280;49539;48.160;11.530;2022-11-23T11:53:32;94493.81;;;9.62;100.00
55149;BME280;49539;48.160;11.530;2022-11-23T11:56:10;94491.59;;;9.79;100.00
55149;BME280;49539;48.160;11.530;2022-11-23T11:58:38;94479.50;;;10.66;100.00
55149;BME280;49539;48.160;11.530;2022-11-23T12:03:51;94488.94;;;11.59;100.00
55149;BME280;49539;48.160;11.530;2022-11-23T12:06:20;94486.41;;;11.79;100.00
55149;BME280;49539;48.160;11.530;2022-11-23T12:11:22;94484.16;;;12.11;100.00
55149;BME280;49539;48.160;11.530;2022-11-23T12:13:47;94484.31;;;11.83;100.00
55149;BME280;49539;48.160;11.530;2022-11-23T12:16:21;94484.41;;;11.56;100.00
55149;BME280;49539;48.160;11.530;2022-11-23T12:21:38;94476.91;;;10.44;100.00
55149;BME280;49539;48.160;11.530;2022-11-23T12:24:15;94473.00;;;10.45;100.00
55149;BME280;49539;48.160;11.530;2022-11-23T12:26:56;94476.88;;;12.71;100.00
55149;BME280;49539;48.160;11.530;2022-11-23T12:32:13;94471.06;;;15.41;66.99
55149;BME280;49539;48.160;11.530;2022-11-23T12:34:52;94472.78;;;16.07;55.23
55149;BME280;49539;48.160;11.530;2022-11-23T12:37:24;94469.81;;;16.11;51.82
55149;BME280;49539;48.160;11.530;2022-11-23T12:40:34;94465.16;;;16.88;45.30
55149;BME280;49539;48.160;11.530;2022-11-23T12:42:47;94470.03;;;16.61;45.56
55149;BME280;49539;48.160;11.530;2022-11-23T12:47:44;94465.22;;;17.22;47.68
55149;BME280;49539;48.160;11.530;2022-11-23T12:58:08;94466.78;;;15.08;60.57
55149;BME280;49539;48.160;11.530;2022-11-23T13:00:39;94464.66;;;15.50;54.97
55149;BME280;49539;48.160;11.530;2022-11-23T13:05:53;94460.31;;;13.04;81.86
55149;BME280;49539;48.160;11.530;2022-11-23T13:13:40;94475.50;;;12.12;92.07
55149;BME280;49539;48.160;11.530;2022-11-23T13:16:20;94467.75;;;12.74;86.93
55149;BME280;49539;48.160;11.530;2022-11-23T13:23:46;94459.09;;;13.05;91.34
55149;BME280;49539;48.160;11.530;2022-11-23T13:28:37;94465.22;;;13.00;93.66
55149;BME280;49539;48.160;11.530;2022-11-23T13:31:16;94458.94;;;13.23;96.47
55149;BME280;49539;48.160;11.530;2022-11-23T13:33:43;94467.53;;;12.00;99.26
55149;BME280;49539;48.160;11.530;2022-11-23T13:36:09;94467.31;;;12.12;100.00
55149;BME280;49539;48.160;11.530;2022-11-23T13:38:36;94469.63;;;12.68;100.00
55149;BME280;49539;48.160;11.530;2022-11-23T13:41:02;94475.72;;;12.48;90.46
55149;BME280;49539;48.160;11.530;2022-11-23T13:43:28;94474.75;;;12.89;94.38
55149;BME280;49539;48.160;11.530;2022-11-23T13:48:44;94454.97;;;14.30;75.95
55149;BME280;49539;48.160;11.530;2022-11-23T13:51:10;94456.81;;;14.59;62.46
55149;BME280;49539;48.160;11.530;2022-11-23T13:53:39;94452.59;;;13.32;73.55